• Join FlightAware (Why Join?)
  • Login
  • US Flag 
04:59AM EST


 

Airport Tracker/Info


-or-


 

Live Flight TrackerFlight Track Log ✈ SKW6345 ✈ 26-Jun-2013 ✈ KSFO - KBZN

Flight Track Log - Related Links

Times and Time Zones

All times are in EDT time to prevent confusion due to time zone crossing. See the SKW6345 flight status page for this flight to view local times or setup timezone preferences in your user account.

Time Position Orientation Groundspeed Altitude Reporting Facility
EDT Latitude Longitude Course Direction KTS MPH feet Rate Location/Type
11:21AM 37.6333 -122.3500 38° Northeast 166 191 1,400  Level Northern Cal TRACON
11:22AM 37.6833 -122.3000 38° Northeast 230 265 3,300 2,100 Climbing Northern Cal TRACON
11:23AM 37.7589 -122.1967 47° Northeast 278 320 6,700 2,160 Climbing Oakland Center
11:24AM 37.7124 -122.2710 38° Northeast  Level FlightAware Approximate
11:24AM 37.8267 -122.1333 36° Northeast 302 348 8,900  Level Oakland Center
11:25AM 37.8222 -122.1611 38° Northeast  Level FlightAware Approximate
11:25AM 37.8969 -122.0661 37° Northeast 317 365 10,500  Level Oakland Center
11:26AM 37.9321 -122.0512 38° Northeast  Level FlightAware Approximate
11:26AM 37.9742 -121.9944 36° Northeast 343 395 12,300  Level Oakland Center
11:27AM 38.0525 -121.9208 36° Northeast 352 405 14,000 1,560 Climbing Oakland Center
11:28AM 38.1333 -121.8444 37° Northeast 362 417 15,500 1,440 Climbing Oakland Center
11:29AM 38.2317 -121.7514 37° Northeast 370 426 17,000 1,200 Climbing Oakland Center
11:30AM 38.3172 -121.6714 36° Northeast 380 437 18,000 1,020 Climbing Oakland Center
11:32AM 38.4044 -121.5878 37° Northeast 393 452 19,100 1,080 Climbing Oakland Center
11:33AM 38.4819 -121.4847 46° Northeast 408 470 20,200 900 Climbing Oakland Center
11:34AM 38.5489 -121.3697 53° Northeast 406 467 21,000 840 Climbing Oakland Center
11:35AM 38.6189 -121.2481 54° Northeast 421 484 22,000 900 Climbing Oakland Center
11:36AM 38.6875 -121.1347 52° Northeast 419 482 22,900 780 Climbing Oakland Center
11:37AM 38.7578 -121.0119 54° Northeast 424 488 23,600 840 Climbing Oakland Center
11:38AM 38.8433 -120.8625 54° Northeast 432 497 24,700 840 Climbing Oakland Center
11:39AM 38.9153 -120.7369 54° Northeast 435 501 25,400 660 Climbing Oakland Center
11:40AM 38.9886 -120.6108 53° Northeast 440 506 26,100 600 Climbing Oakland Center
11:41AM 39.0636 -120.4822 53° Northeast 446 513 26,700 540 Climbing Oakland Center
11:42AM 39.1700 -120.4014 30° Northeast 448 516 27,300 480 Climbing Oakland Center
11:43AM 39.2772 -120.3256 29° Northeast 442 509 27,800 480 Climbing Oakland Center
11:44AM 39.3881 -120.2492 28° Northeast 447 514 28,300 480 Climbing Oakland Center
11:45AM 39.5003 -120.1694 29° Northeast 458 527 28,800 480 Climbing Oakland Center
11:46AM 39.6256 -120.0839 28° Northeast 460 529 29,400 540 Climbing Oakland Center
11:47AM 39.7367 -120.0039 29° Northeast 456 525 29,900 480 Climbing Oakland Center
11:48AM 39.8472 -119.9239 29° Northeast 453 521 30,400 480 Climbing Oakland Center
11:49AM 39.9597 -119.8442 29° Northeast 457 526 30,900 480 Climbing Oakland Center
11:50AM 40.0706 -119.7650 29° Northeast 453 521 31,400 480 Climbing Oakland Center
11:51AM 40.1794 -119.6858 29° Northeast 446 513 32,000 480 Climbing Oakland Center
11:52AM 40.2894 -119.6056 29° Northeast 450 518 32,500 480 Climbing Oakland Center
11:53AM 40.3978 -119.5272 29° Northeast 445 512 33,000 240 Climbing Oakland Center
11:54AM 40.5283 -119.4325 29° Northeast 445 512 33,000  Level Oakland Center
11:55AM 40.6406 -119.3500 29° Northeast 457 526 33,000  Level Oakland Center
11:56AM 40.7564 -119.2653 29° Northeast 471 542 33,000  Level Oakland Center
11:57AM 40.8658 -119.1836 29° Northeast 470 541 33,000  Level Oakland Center
11:58AM 40.9400 -119.1297 29° Northeast 471 542 33,000  Level Salt Lake Center
11:59AM 41.0661 -119.0367 29° Northeast 466 536 33,000  Level Salt Lake Center
12:00PM 41.1728 -118.9583 29° Northeast 461 531 33,000  Level Salt Lake Center
12:01PM 41.2794 -118.8786 29° Northeast 459 528 33,000  Level Salt Lake Center
12:02PM 41.4047 -118.7831 30° Northeast 462 532 33,000  Level Salt Lake Center
12:03PM 41.5119 -118.7031 29° Northeast 462 532 33,000  Level Salt Lake Center
12:04PM 41.6386 -118.6067 30° Northeast 466 536 33,000  Level Salt Lake Center
12:05PM 41.7458 -118.5258 29° Northeast 461 531 33,000  Level Salt Lake Center
12:06PM 41.8703 -118.4297 30° Northeast 461 531 33,000  Level Salt Lake Center
12:07PM 41.9775 -118.3492 29° Northeast 461 531 33,000  Level Salt Lake Center
12:08PM 42.1025 -118.2511 30° Northeast 463 533 33,000  Level Salt Lake Center
12:09PM 42.2108 -118.1683 30° Northeast 466 536 33,000  Level Salt Lake Center
12:10PM 42.3275 -118.0725 31° Northeast 463 533 33,000  Level Salt Lake Center
12:11PM 42.4347 -117.9872 30° Northeast 464 534 33,000  Level Salt Lake Center
12:12PM 42.5606 -117.8903 30° Northeast 467 537 33,000  Level Salt Lake Center
12:13PM 42.6447 -117.7633 48° Northeast 473 544 33,000  Level Salt Lake Center
12:14PM 42.7336 -117.6019 53° Northeast 475 547 33,000  Level Salt Lake Center
12:15PM 42.8089 -117.4628 54° Northeast 477 549 33,000  Level Salt Lake Center
12:16PM 42.8967 -117.2989 54° Northeast 480 552 33,000  Level Salt Lake Center
12:17PM 42.9722 -117.1594 53° Northeast 478 550 33,000  Level Salt Lake Center
12:18PM 43.0603 -116.9956 54° Northeast 479 551 33,000  Level Salt Lake Center
12:19PM 43.1353 -116.8569 53° Northeast 475 547 33,000  Level Salt Lake Center
12:20PM 43.2219 -116.6875 55° Northeast 483 556 33,000  Level Salt Lake Center
12:21PM 43.2969 -116.5456 54° Northeast 482 555 33,000  Level Salt Lake Center
12:23PM 43.3725 -116.4028 54° Northeast 482 555 33,000  Level Salt Lake Center
12:24PM 43.4586 -116.2347 55° Northeast 481 554 33,000  Level Salt Lake Center
12:25PM 43.5333 -116.0922 54° Northeast 482 555 33,000  Level Salt Lake Center
12:26PM 43.6192 -115.9239 55° Northeast 481 554 33,000  Level Salt Lake Center
12:27PM 43.6925 -115.7800 55° Northeast 481 554 33,000  Level Salt Lake Center
12:28PM 43.7786 -115.6103 55° Northeast 485 558 33,000  Level Salt Lake Center
12:29PM 43.8522 -115.4636 55° Northeast 485 558 33,000  Level Salt Lake Center
12:30PM 43.9383 -115.2928 55° Northeast 483 556 33,000  Level Salt Lake Center
12:31PM 44.0131 -115.1444 55° Northeast 489 563 33,000  Level Salt Lake Center
12:32PM 44.0975 -114.9722 56° Northeast 486 559 33,000  Level Salt Lake Center
12:33PM 44.1706 -114.8231 56° Northeast 487 560 33,000  Level Salt Lake Center
12:34PM 44.2567 -114.6483 55° Northeast 491 565 33,000  Level Salt Lake Center
12:35PM 44.3303 -114.4983 56° Northeast 490 564 33,000  Level Salt Lake Center
12:36PM 44.4161 -114.3217 56° Northeast 492 566 33,000  Level Salt Lake Center
12:37PM 44.4897 -114.1706 56° Northeast 492 566 33,000  Level Salt Lake Center
12:38PM 44.5761 -113.9917 56° Northeast 496 571 33,000  Level Salt Lake Center
12:39PM 44.6436 -113.8444 57° Northeast 488 562 33,000  Level Salt Lake Center
12:40PM 44.7283 -113.6644 56° Northeast 494 568 33,000  Level Salt Lake Center
12:41PM 44.8014 -113.5106 56° Northeast 495 570 33,000  Level Salt Lake Center
12:42PM 44.8742 -113.3556 56° Northeast 494 568 33,000  Level Salt Lake Center
12:43PM 44.9583 -113.1761 56° Northeast 490 564 33,000  Level Salt Lake Center
12:44PM 45.0300 -113.0211 57° Northeast 492 566 33,000  Level Salt Lake Center
12:45PM 45.1144 -112.8411 56° Northeast 492 566 33,000 -1,140 Level Salt Lake Center
12:46PM 45.1858 -112.6831 57° Northeast 496 571 30,700 -2,820 Descending Salt Lake Center
12:47PM 45.2700 -112.4953 57° Northeast 501 577 27,300 -3,060 Descending Salt Lake Center
12:48PM 45.3331 -112.3300 61° Northeast 498 573 24,400 -2,760 Descending Salt Lake Center
12:49PM 45.3953 -112.1736 60° Northeast 485 558 21,600 -2,700 Descending Salt Lake Center
12:50PM 45.4578 -112.0144 61° Northeast 467 537 18,900 -2,820 Descending Salt Lake Center
12:51PM 45.5256 -111.8364 61° Northeast 433 498 15,800 -2,700 Descending Salt Lake Center
12:52PM 45.5786 -111.6983 61° Northeast 406 467 13,400 -1,440 Descending Salt Lake Center
12:53PM 45.6256 -111.5747 61° Northeast 366 421 12,900 -240 Descending Salt Lake Center
12:54PM 45.7047 -111.5208 25° Northeast 332 382 13,000 -180 Climbing Salt Lake Center
12:56PM 45.7906 -111.4836 17° North 325 374 12,600 -1,260 Descending Salt Lake Center
12:57PM 45.8658 -111.4494 18° North 302 348 10,400 -1,800 Descending Salt Lake Center
12:58PM 45.9269 -111.4000 29° Northeast 279 321 9,000 -1,140 Descending Salt Lake Center
12:59PM 45.9081 -111.3019 105° East 266 306 8,100 -900 Descending Salt Lake Center
01:00PM 45.8778 -111.2144 116° Southeast 254 292 7,200 -720 Descending Salt Lake Center
01:01PM 45.8361 -111.1261 124° Southeast 229 264 6,700 -360 Descending Salt Lake Center
01:02PM 45.7983 -111.0844 142° Southeast 217 250 6,500 -240 Descending Salt Lake Center